Time;durP1;ratioP1;P1;durP2;ratioP2;P2;SDS_P1;SDS_P2;PMS_P1;PMS_P2;Temp;Humidity;BMP_temperature;BMP_pressure;BME280_temperature;BME280_humidity;BME280_pressure;Samples;Min_cycle;Max_cycle;Signal;HPM_P1;HPM_P2
2023/04/19 00:02:01;;;;;;;15.20;8.43;;;8.70;99.90;;;;;;5079441;28;20041;-85
2023/04/19 00:04:27;;;;;;;16.88;8.60;;;8.60;99.90;;;;;;5080369;28;20040;-85
2023/04/19 00:06:52;;;;;;;14.93;8.57;;;8.60;99.90;;;;;;5080715;28;20197;-84
2023/04/19 00:09:18;;;;;;;14.43;8.55;;;8.70;99.90;;;;;;5080936;28;20059;-85
2023/04/19 00:11:44;;;;;;;13.77;8.18;;;9.00;99.90;;;;;;5061330;28;20036;-85
2023/04/19 00:14:09;;;;;;;14.77;8.63;;;8.70;99.90;;;;;;5078420;28;20041;-85
2023/04/19 00:16:35;;;;;;;15.40;8.30;;;8.70;99.90;;;;;;5063020;28;20048;-84
2023/04/19 00:19:01;;;;;;;13.98;7.88;;;8.70;99.90;;;;;;5078986;28;20462;-85
2023/04/19 00:21:26;;;;;;;14.15;8.23;;;8.70;99.90;;;;;;5059068;28;20041;-87
2023/04/19 00:23:52;;;;;;;16.17;8.13;;;9.00;99.90;;;;;;5058607;28;20399;-85
2023/04/19 00:26:18;;;;;;;13.80;9.10;;;8.70;99.90;;;;;;5076677;28;20094;-86
2023/04/19 00:28:44;;;;;;;12.95;7.30;;;8.60;99.90;;;;;;5075599;28;20048;-85
2023/04/19 00:31:10;;;;;;;12.75;7.78;;;9.00;99.90;;;;;;5075255;28;20049;-87
2023/04/19 00:33:36;;;;;;;15.02;8.40;;;8.70;99.90;;;;;;5074930;28;20080;-84
2023/04/19 00:36:01;;;;;;;12.07;6.93;;;8.70;99.90;;;;;;5075136;28;20040;-84
2023/04/19 00:38:27;;;;;;;10.45;6.78;;;8.70;99.90;;;;;;5074866;28;20392;-85
2023/04/19 00:40:53;;;;;;;10.05;6.80;;;8.70;99.90;;;;;;5076200;28;20045;-86
2023/04/19 00:43:19;;;;;;;12.88;7.40;;;8.70;99.90;;;;;;5074902;28;20048;-86
2023/04/19 00:45:46;;;;;;;13.35;7.10;;;8.70;99.90;;;;;;5075142;28;20048;-87
2023/04/19 00:48:13;;;;;;;12.57;6.93;;;8.70;99.90;;;;;;5074770;28;20090;-88
2023/04/19 00:50:39;;;;;;;10.98;6.82;;;8.70;99.90;;;;;;5074358;28;20072;-87
2023/04/19 00:53:06;;;;;;;13.88;6.60;;;8.70;99.90;;;;;;5058265;28;20131;-87
2023/04/19 00:55:32;;;;;;;11.45;6.45;;;8.70;99.90;;;;;;5074512;28;20066;-87
2023/04/19 00:57:58;;;;;;;11.57;6.65;;;9.40;99.90;;;;;;5074672;28;20045;-86
2023/04/19 01:00:25;;;;;;;10.43;7.00;;;8.70;99.90;;;;;;5074135;28;20051;-86
2023/04/19 01:02:50;;;;;;;12.82;6.50;;;8.60;99.90;;;;;;5075507;28;20084;-85
2023/04/19 01:05:16;;;;;;;9.85;6.88;;;8.70;99.90;;;;;;5074298;28;20083;-86
2023/04/19 01:07:42;;;;;;;11.52;6.20;;;8.70;99.90;;;;;;5058156;28;20063;-85
2023/04/19 01:10:08;;;;;;;9.10;5.68;;;8.70;99.90;;;;;;5057851;28;20040;-84
2023/04/19 01:12:33;;;;;;;12.18;6.63;;;8.60;99.90;;;;;;5041692;28;20044;-84
2023/04/19 01:14:59;;;;;;;8.25;5.40;;;8.60;99.90;;;;;;5075317;28;20140;-84
2023/04/19 01:17:26;;;;;;;12.52;6.45;;;8.60;99.90;;;;;;5075402;28;20041;-85
2023/04/19 01:20:02;;;;;;;12.10;6.45;;;8.60;99.90;;;;;;5057388;28;20056;-85
2023/04/19 01:22:29;;;;;;;12.27;6.40;;;9.60;99.90;;;;;;5057457;28;20062;-85
2023/04/19 01:24:56;;;;;;;9.75;5.50;;;8.40;99.90;;;;;;5057783;28;20178;-86
2023/04/19 01:27:22;;;;;;;10.77;6.15;;;8.60;99.90;;;;;;5073993;28;20059;-87
2023/04/19 01:29:48;;;;;;;8.80;5.60;;;9.70;99.90;;;;;;5075437;28;20055;-84
2023/04/19 01:32:14;;;;;;;9.88;6.30;;;9.00;99.90;;;;;;5073843;28;20392;-85
2023/04/19 01:34:40;;;;;;;10.55;6.20;;;8.50;99.90;;;;;;5073488;28;20051;-86
2023/04/19 01:37:06;;;;;;;9.93;5.95;;;8.50;99.90;;;;;;5073948;28;20439;-85
2023/04/19 01:39:32;;;;;;;8.73;5.43;;;8.50;99.90;;;;;;5073675;28;20044;-85
2023/04/19 01:41:57;;;;;;;11.13;5.82;;;9.00;99.90;;;;;;5073792;28;20119;-85
2023/04/19 01:44:23;;;;;;;11.43;5.80;;;9.30;99.90;;;;;;5074707;28;20043;-87
2023/04/19 01:46:49;;;;;;;8.27;5.55;;;8.40;99.90;;;;;;5057182;28;20051;-86
2023/04/19 01:49:15;;;;;;;9.55;5.90;;;8.40;99.90;;;;;;5073246;28;20081;-85
2023/04/19 01:51:40;;;;;;;7.35;5.30;;;8.40;99.90;;;;;;5074629;28;20040;-86
2023/04/19 01:54:06;;;;;;;10.50;5.60;;;8.30;99.90;;;;;;5057067;28;20048;-86
2023/04/19 01:56:32;;;;;;;11.93;6.53;;;8.30;99.90;;;;;;5056908;28;20109;-86
2023/04/19 01:58:57;;;;;;;10.15;5.85;;;8.30;99.90;;;;;;5073761;28;20040;-86
2023/04/19 02:01:23;;;;;;;8.82;6.05;;;8.30;99.90;;;;;;5074547;28;20041;-87
2023/04/19 02:03:49;;;;;;;9.90;6.20;;;8.30;99.90;;;;;;5056761;28;20125;-85
2023/04/19 02:06:14;;;;;;;10.85;5.47;;;8.30;99.90;;;;;;5073976;28;20052;-86
2023/04/19 02:08:41;;;;;;;11.25;6.47;;;8.20;99.90;;;;;;5074359;28;20508;-83
2023/04/19 02:11:14;;;;;;;9.05;6.03;;;8.20;99.90;;;;;;5074194;28;20051;-86
2023/04/19 02:13:40;;;;;;;11.48;6.40;;;8.20;99.90;;;;;;5056392;28;20492;-87
2023/04/19 02:16:07;;;;;;;13.77;5.82;;;8.10;99.90;;;;;;5056726;28;20131;-84
2023/04/19 02:18:37;;;;;;;11.00;6.07;;;9.00;99.90;;;;;;5056429;28;20040;-87
2023/04/19 02:21:03;;;;;;;11.88;6.68;;;8.10;99.90;;;;;;5074345;28;20040;-84
2023/04/19 02:23:29;;;;;;;8.82;6.00;;;8.90;99.90;;;;;;5056593;28;20052;-85
2023/04/19 02:25:55;;;;;;;12.13;5.85;;;8.10;99.90;;;;;;5073014;28;20051;-85
2023/04/19 02:28:20;;;;;;;13.40;5.95;;;8.10;99.90;;;;;;5072972;28;20054;-85
2023/04/19 02:30:46;;;;;;;9.15;5.40;;;8.00;99.90;;;;;;5057453;28;20128;-83
2023/04/19 02:33:12;;;;;;;7.53;5.22;;;8.00;99.90;;;;;;5062434;28;20434;-85
2023/04/19 02:35:37;;;;;;;14.05;6.55;;;8.00;99.90;;;;;;5078889;28;20052;-84
2023/04/19 02:38:03;;;;;;;12.18;6.20;;;8.00;99.90;;;;;;5078836;28;20041;-87
2023/04/19 02:40:29;;;;;;;11.70;5.97;;;8.00;99.90;;;;;;5074511;28;20082;-86
2023/04/19 02:42:55;;;;;;;10.88;5.60;;;8.00;99.90;;;;;;5072631;28;20040;-86
2023/04/19 02:45:21;;;;;;;9.10;5.30;;;9.00;99.90;;;;;;5072669;28;20055;-86
2023/04/19 02:47:46;;;;;;;7.82;5.15;;;8.00;99.90;;;;;;5073830;28;20123;-86
2023/04/19 02:50:13;;;;;;;9.93;5.38;;;7.90;99.90;;;;;;5072363;28;20088;-84
2023/04/19 02:52:39;;;;;;;10.82;5.60;;;8.00;99.90;;;;;;5073133;28;20036;-85
2023/04/19 02:55:05;;;;;;;9.32;5.13;;;7.90;99.90;;;;;;5072415;28;20040;-84
2023/04/19 02:57:31;;;;;;;10.38;5.78;;;7.90;99.90;;;;;;5072423;28;20098;-85
2023/04/19 02:59:57;;;;;;;11.85;5.63;;;7.90;99.90;;;;;;5072455;28;20040;-86
2023/04/19 03:02:24;;;;;;;9.83;5.63;;;7.80;99.90;;;;;;5072297;28;20492;-85
2023/04/19 03:04:50;;;;;;;8.82;5.60;;;7.70;99.90;;;;;;5072448;28;20051;-84
2023/04/19 03:07:15;;;;;;;9.30;5.70;;;7.70;99.90;;;;;;5072360;28;20044;-86
2023/04/19 03:09:41;;;;;;;11.43;5.50;;;7.60;99.90;;;;;;5056712;28;20056;-83
2023/04/19 03:12:07;;;;;;;9.52;5.30;;;7.60;99.90;;;;;;5072506;28;20114;-85
2023/04/19 03:14:33;;;;;;;10.00;4.90;;;7.50;99.90;;;;;;5072313;28;20055;-85
2023/04/19 03:16:59;;;;;;;7.88;5.53;;;7.40;99.90;;;;;;5071995;28;20040;-85
2023/04/19 03:19:24;;;;;;;10.07;5.80;;;7.70;99.90;;;;;;5055498;28;20040;-85
2023/04/19 03:21:50;;;;;;;7.80;5.38;;;7.60;99.90;;;;;;5055821;28;20271;-84
2023/04/19 03:24:18;;;;;;;8.63;5.55;;;7.20;99.90;;;;;;5075065;28;20120;-85
2023/04/19 03:26:44;;;;;;;9.77;6.25;;;7.10;99.90;;;;;;5059740;28;20056;-85
2023/04/19 03:29:10;;;;;;;9.00;5.45;;;7.00;99.90;;;;;;5076563;28;20041;-84
2023/04/19 03:31:36;;;;;;;14.75;5.50;;;7.00;99.90;;;;;;5059506;28;20548;-85
2023/04/19 03:34:01;;;;;;;14.02;6.93;;;6.90;99.90;;;;;;5076156;28;20048;-82
2023/04/19 03:36:27;;;;;;;9.75;5.85;;;6.80;99.90;;;;;;5076388;28;20048;-84
2023/04/19 03:38:53;;;;;;;9.80;6.30;;;6.70;99.90;;;;;;5076241;28;20480;-83
2023/04/19 03:41:24;;;;;;;11.23;6.80;;;6.70;99.90;;;;;;5076255;28;20044;-86
2023/04/19 03:43:50;;;;;;;9.85;6.35;;;6.70;99.90;;;;;;5076135;28;20120;-84
2023/04/19 03:46:16;;;;;;;10.73;6.57;;;6.60;99.90;;;;;;5059668;28;20547;-86
2023/04/19 03:48:41;;;;;;;14.75;6.28;;;6.50;99.90;;;;;;5076503;28;20489;-87
2023/04/19 03:51:07;;;;;;;11.63;6.15;;;6.50;99.90;;;;;;5076166;28;20131;-88
2023/04/19 03:53:33;;;;;;;9.57;5.63;;;6.40;99.90;;;;;;5059408;28;20047;-89
2023/04/19 03:55:58;;;;;;;8.95;5.82;;;6.40;99.90;;;;;;5059366;28;20126;-89
2023/04/19 03:58:24;;;;;;;12.10;6.32;;;6.40;99.90;;;;;;5059356;28;20075;-87
2023/04/19 04:00:50;;;;;;;12.88;6.00;;;6.40;99.90;;;;;;5076053;28;20389;-88
2023/04/19 04:03:16;;;;;;;11.30;5.18;;;6.50;99.90;;;;;;5059829;28;20044;-87
2023/04/19 04:05:42;;;;;;;9.23;5.72;;;6.20;99.90;;;;;;5059923;28;20087;-87
2023/04/19 04:08:07;;;;;;;8.57;5.75;;;6.20;99.90;;;;;;5076061;28;20132;-88
2023/04/19 04:10:33;;;;;;;11.82;6.07;;;6.20;99.90;;;;;;5075928;28;20484;-90
2023/04/19 04:12:58;;;;;;;11.30;6.03;;;6.70;99.90;;;;;;5077228;28;20059;-90
2023/04/19 04:15:24;;;;;;;9.90;5.60;;;6.40;99.90;;;;;;5075713;28;20048;-91
2023/04/19 04:17:50;;;;;;;13.55;5.70;;;6.10;99.90;;;;;;5060258;28;20041;-90
2023/04/19 04:20:16;;;;;;;11.45;6.28;;;6.00;99.90;;;;;;5059797;28;20162;-89
2023/04/19 04:22:42;;;;;;;8.20;5.60;;;6.00;99.90;;;;;;5058841;28;20194;-84
2023/04/19 04:25:09;;;;;;;7.93;5.30;;;6.00;99.90;;;;;;5076602;28;20052;-89
2023/04/19 04:27:36;;;;;;;10.93;5.85;;;5.90;99.90;;;;;;5059671;28;20135;-87
2023/04/19 04:30:01;;;;;;;;;;;5.90;99.90;;;;;;5060947;28;20044;-89
2023/04/19 04:32:27;;;;;;;12.82;5.60;;;5.90;99.90;;;;;;5074931;28;20019;-87
2023/04/19 04:34:53;;;;;;;10.57;5.80;;;5.90;99.90;;;;;;5057748;28;20037;-84
2023/04/19 04:37:19;;;;;;;10.82;5.93;;;5.80;99.90;;;;;;5074556;28;20033;-84
2023/04/19 04:39:45;;;;;;;9.98;6.32;;;5.80;99.90;;;;;;5075331;28;20052;-82
2023/04/19 04:42:11;;;;;;;12.60;5.95;;;5.80;99.90;;;;;;5076059;28;20048;-81
2023/04/19 04:44:37;;;;;;;9.98;5.47;;;5.80;99.90;;;;;;5074806;28;20525;-83
2023/04/19 04:47:03;;;;;;;12.50;5.82;;;5.80;99.90;;;;;;5075850;28;20045;-84
2023/04/19 04:49:29;;;;;;;8.57;5.35;;;5.70;99.90;;;;;;5075672;28;20070;-80
2023/04/19 04:51:55;;;;;;;8.52;5.35;;;5.70;99.90;;;;;;5075468;28;20052;-82
2023/04/19 04:54:21;;;;;;;14.52;5.55;;;5.70;99.90;;;;;;5075672;28;20140;-82
2023/04/19 04:56:46;;;;;;;9.38;5.50;;;5.60;99.90;;;;;;5074435;28;20127;-83
2023/04/19 04:59:12;;;;;;;7.93;5.15;;;5.60;99.90;;;;;;5074547;28;20502;-82
2023/04/19 05:01:37;;;;;;;12.38;5.43;;;6.00;99.90;;;;;;5074577;28;20453;-83
2023/04/19 05:04:03;;;;;;;9.75;5.57;;;5.60;99.90;;;;;;5074332;28;20079;-82
2023/04/19 05:06:29;;;;;;;12.02;5.20;;;5.60;99.90;;;;;;5075534;28;20041;-81
2023/04/19 05:08:55;;;;;;;10.37;5.07;;;5.60;99.90;;;;;;5074234;28;20056;-81
2023/04/19 05:11:21;;;;;;;6.35;4.70;;;5.60;99.90;;;;;;5074292;28;20094;-82
2023/04/19 05:13:46;;;;;;;13.02;5.70;;;5.60;99.90;;;;;;5075509;28;20043;-87
2023/04/19 05:16:12;;;;;;;10.10;5.20;;;5.60;99.90;;;;;;5074173;28;20044;-86
2023/04/19 05:18:37;;;;;;;9.95;5.60;;;5.60;99.90;;;;;;5058412;28;20048;-84
2023/04/19 05:21:03;;;;;;;8.75;5.07;;;5.90;99.90;;;;;;5074329;28;20041;-87
2023/04/19 05:23:29;;;;;;;9.98;5.18;;;5.70;99.90;;;;;;5075091;28;20389;-86
2023/04/19 05:25:55;;;;;;;9.93;5.18;;;5.70;99.90;;;;;;5074081;28;20049;-87
2023/04/19 05:28:20;;;;;;;11.45;5.05;;;5.60;99.90;;;;;;5073727;28;20045;-86
2023/04/19 05:30:46;;;;;;;9.25;4.93;;;5.70;99.90;;;;;;5073643;28;20044;-84
2023/04/19 05:33:11;;;;;;;11.75;5.15;;;5.80;99.90;;;;;;5074670;28;20040;-84
2023/04/19 05:35:37;;;;;;;10.00;5.03;;;5.70;99.90;;;;;;5057652;28;20051;-86
2023/04/19 05:38:03;;;;;;;11.23;5.22;;;5.70;99.90;;;;;;5074222;28;20036;-84
2023/04/19 05:40:29;;;;;;;6.97;4.85;;;5.80;99.90;;;;;;5057520;28;20091;-85
2023/04/19 05:42:54;;;;;;;10.00;4.70;;;5.80;99.90;;;;;;5073959;28;20048;-85
2023/04/19 05:45:20;;;;;;;8.20;4.93;;;5.90;99.90;;;;;;5074423;28;20291;-86
2023/04/19 05:47:46;;;;;;;6.60;4.43;;;5.90;99.90;;;;;;5073720;28;20048;-84
2023/04/19 05:50:13;;;;;;;9.57;4.85;;;5.90;99.90;;;;;;5073438;28;20079;-85
2023/04/19 05:52:39;;;;;;;7.28;4.60;;;6.00;99.90;;;;;;5073843;28;20042;-84
2023/04/19 05:55:05;;;;;;;7.95;4.70;;;6.10;99.90;;;;;;5073941;28;20466;-84
2023/04/19 05:57:31;;;;;;;9.05;4.88;;;6.00;99.90;;;;;;5056837;28;20079;-84
2023/04/19 05:59:57;;;;;;;8.75;4.55;;;6.20;99.90;;;;;;5058323;28;20476;-81
2023/04/19 06:02:22;;;;;;;6.43;4.35;;;6.20;99.90;;;;;;5077423;28;20037;-83
2023/04/19 06:04:48;;;;;;;6.63;4.10;;;6.20;99.90;;;;;;5075675;28;20070;-80
2023/04/19 06:07:13;;;;;;;8.40;4.10;;;6.30;99.90;;;;;;5079180;28;20049;-83
2023/04/19 06:09:39;;;;;;;8.00;4.00;;;6.40;99.90;;;;;;5076556;28;20051;-83
2023/04/19 06:12:05;;;;;;;9.45;3.75;;;6.90;99.90;;;;;;5072997;28;20047;-83
2023/04/19 06:14:31;;;;;;;7.63;4.05;;;6.50;99.90;;;;;;5073221;28;20044;-83
2023/04/19 06:16:56;;;;;;;9.88;4.32;;;6.60;99.90;;;;;;5072796;28;20045;-83
2023/04/19 06:19:22;;;;;;;5.32;3.70;;;6.70;99.90;;;;;;5073159;28;20047;-85
2023/04/19 06:21:48;;;;;;;9.07;3.83;;;6.80;99.90;;;;;;5073456;28;20510;-86
2023/04/19 06:24:14;;;;;;;7.28;4.10;;;6.90;99.90;;;;;;5072621;28;20464;-84
2023/04/19 06:26:39;;;;;;;8.07;3.63;;;7.00;99.90;;;;;;5051887;28;20120;-84
2023/04/19 06:29:05;;;;;;;7.60;4.07;;;7.10;99.90;;;;;;5072410;28;20049;-84
2023/04/19 06:31:32;;;;;;;6.72;3.50;;;7.30;99.90;;;;;;5088816;28;20051;-85
2023/04/19 06:33:57;;;;;;;5.88;4.10;;;7.40;99.90;;;;;;5073390;28;20037;-83
2023/04/19 06:36:23;;;;;;;5.38;3.25;;;7.60;99.90;;;;;;5089592;28;20043;-84
2023/04/19 06:38:49;;;;;;;5.53;3.40;;;7.60;99.90;;;;;;5072559;28;20051;-86
2023/04/19 06:41:14;;;;;;;4.35;3.03;;;7.80;99.90;;;;;;5072487;28;20055;-85
2023/04/19 06:43:41;;;;;;;6.25;3.15;;;8.00;99.90;;;;;;5056034;28;20049;-84
2023/04/19 06:46:08;;;;;;;8.63;3.50;;;8.00;99.90;;;;;;5055533;28;20123;-85
2023/04/19 06:48:34;;;;;;;;;;;8.10;99.90;;;;;;5074075;28;20063;-83
2023/04/19 06:51:00;;;;;;;4.63;3.17;;;8.20;99.90;;;;;;5072173;28;19924;-85
2023/04/19 06:53:26;;;;;;;6.60;3.10;;;8.40;99.90;;;;;;5072564;28;20045;-81
2023/04/19 06:56:00;;;;;;;5.60;2.63;;;8.30;99.90;;;;;;5072459;28;20480;-83
2023/04/19 06:58:26;;;;;;;4.57;2.97;;;8.40;99.90;;;;;;5072631;28;20496;-85
2023/04/19 07:00:52;;;;;;;5.57;2.88;;;8.50;99.90;;;;;;5073422;28;20055;-84
2023/04/19 07:03:18;;;;;;;11.20;3.00;;;8.70;99.90;;;;;;5072545;28;20048;-84
2023/04/19 07:05:43;;;;;;;3.92;2.97;;;8.80;99.90;;;;;;5073439;28;20047;-86
2023/04/19 07:08:09;;;;;;;4.00;2.78;;;8.90;99.90;;;;;;5072559;28;20447;-85
2023/04/19 07:10:34;;;;;;;4.18;2.78;;;8.90;99.90;;;;;;5072456;28;20048;-85
2023/04/19 07:13:00;;;;;;;6.05;2.88;;;9.10;99.90;;;;;;5071981;28;20067;-85
2023/04/19 07:15:26;;;;;;;5.22;2.78;;;9.20;99.90;;;;;;5073272;28;20048;-84
2023/04/19 07:17:51;;;;;;;4.72;2.53;;;9.20;99.90;;;;;;5073014;28;20496;-83
2023/04/19 07:20:17;;;;;;;4.50;2.55;;;9.20;99.90;;;;;;5073489;28;20049;-84
2023/04/19 07:22:43;;;;;;;4.47;2.78;;;9.30;99.90;;;;;;5089052;28;20029;-84
2023/04/19 07:25:09;;;;;;;4.40;2.70;;;9.40;99.90;;;;;;5072042;28;20090;-82
2023/04/19 07:27:34;;;;;;;4.83;2.23;;;9.50;99.90;;;;;;5055187;28;20135;-82
2023/04/19 07:30:00;;;;;;;9.25;2.55;;;9.80;99.90;;;;;;5071756;28;20076;-82
2023/04/19 07:32:26;;;;;;;5.22;2.50;;;9.60;99.90;;;;;;5073279;28;20127;-83
2023/04/19 07:34:51;;;;;;;3.80;2.40;;;9.70;99.90;;;;;;5055364;28;20041;-85
2023/04/19 07:37:17;;;;;;;3.42;2.33;;;10.50;99.90;;;;;;5071703;28;20443;-81
2023/04/19 07:39:43;;;;;;;4.25;2.50;;;9.90;99.90;;;;;;5055350;28;20178;-83
2023/04/19 07:42:08;;;;;;;4.03;2.25;;;10.00;99.90;;;;;;5071801;28;20119;-73
2023/04/19 07:44:34;;;;;;;3.05;2.25;;;9.90;99.90;;;;;;5072700;28;20055;-78
2023/04/19 07:47:00;;;;;;;5.15;2.00;;;10.00;99.90;;;;;;5073352;28;20048;-78
2023/04/19 07:49:25;;;;;;;7.00;2.60;;;10.10;99.90;;;;;;5073683;28;20052;-79
2023/04/19 07:51:51;;;;;;;3.50;2.10;;;10.60;99.90;;;;;;5073879;28;20135;-79
2023/04/19 07:54:19;;;;;;;5.13;2.50;;;10.30;99.90;;;;;;5071908;28;20064;-79
2023/04/19 07:56:44;;;;;;;4.63;2.40;;;10.40;99.90;;;;;;5073005;28;20083;-78
2023/04/19 07:59:10;;;;;;;5.47;2.20;;;10.50;99.90;;;;;;5072852;28;20086;-79
2023/04/19 08:01:36;;;;;;;4.78;2.33;;;10.50;99.90;;;;;;5073130;28;20099;-79
2023/04/19 08:04:01;;;;;;;3.97;2.15;;;10.50;99.90;;;;;;5072984;28;20041;-78
2023/04/19 08:06:29;;;;;;;8.88;2.70;;;10.70;99.90;;;;;;5073266;28;20369;-80
2023/04/19 08:08:54;;;;;;;4.45;3.25;;;10.80;99.90;;;;;;5073046;28;20044;-79
2023/04/19 08:11:21;;;;;;;4.53;2.35;;;10.90;99.90;;;;;;5075510;28;20084;-79
2023/04/19 08:13:46;;;;;;;4.90;2.20;;;11.00;99.90;;;;;;5076183;28;20377;-79
2023/04/19 08:16:12;;;;;;;4.53;2.47;;;11.00;99.90;;;;;;5076582;28;20048;-79
2023/04/19 08:18:37;;;;;;;4.95;2.55;;;11.00;99.90;;;;;;5076400;28;20044;-79
2023/04/19 08:21:03;;;;;;;7.07;3.08;;;11.20;99.90;;;;;;5076487;28;20170;-79
2023/04/19 08:23:29;;;;;;;5.85;2.70;;;11.30;99.90;;;;;;5076311;28;20041;-79
2023/04/19 08:25:55;;;;;;;3.20;2.20;;;11.30;99.90;;;;;;5075182;28;20045;-79
2023/04/19 08:28:20;;;;;;;5.32;2.90;;;11.40;99.90;;;;;;5075807;28;20053;-81
2023/04/19 08:30:46;;;;;;;4.28;2.70;;;11.50;99.90;;;;;;5075942;28;20048;-81
2023/04/19 08:33:11;;;;;;;4.60;2.50;;;11.50;99.90;;;;;;5075178;28;20040;-80
2023/04/19 08:35:39;;;;;;;3.90;2.50;;;11.60;99.90;;;;;;5075354;28;20400;-80
2023/04/19 08:38:05;;;;;;;3.90;2.90;;;12.00;99.90;;;;;;5075730;28;20055;-82
2023/04/19 08:40:31;;;;;;;7.05;2.55;;;11.90;99.90;;;;;;5074856;28;20045;-77
2023/04/19 08:42:57;;;;;;;4.75;2.63;;;12.10;99.90;;;;;;5075410;28;20041;-77
2023/04/19 08:45:26;;;;;;;3.60;2.10;;;11.90;98.70;;;;;;5075760;28;20055;-75
2023/04/19 08:47:54;;;;;;;9.68;3.05;;;12.00;98.20;;;;;;5075761;28;20045;-86
2023/04/19 08:50:20;;;;;;;6.70;2.67;;;12.00;98.90;;;;;;5074147;28;20049;-83
2023/04/19 08:52:46;;;;;;;6.00;2.35;;;12.00;99.30;;;;;;5074274;28;20396;-78
2023/04/19 08:55:14;;;;;;;6.97;2.75;;;12.10;98.60;;;;;;5074103;28;20040;-79
2023/04/19 08:57:39;;;;;;;5.80;2.15;;;12.10;97.10;;;;;;5075073;28;20044;-88
2023/04/19 09:00:10;;;;;;;7.07;2.65;;;12.20;97.70;;;;;;5074684;28;20435;-88
2023/04/19 09:02:46;;;;;;;3.35;2.42;;;12.30;98.40;;;;;;5074044;28;20045;-85
2023/04/19 09:05:13;;;;;;;4.68;2.55;;;12.40;96.80;;;;;;5074859;28;20043;-87
2023/04/19 09:07:38;;;;;;;7.32;2.42;;;12.80;97.60;;;;;;5056836;28;20047;-88
2023/04/19 09:10:06;;;;;;;13.93;2.30;;;12.70;96.40;;;;;;5072948;28;20476;-85
2023/04/19 09:12:36;;;;;;;5.03;2.30;;;12.60;96.20;;;;;;5074020;28;20040;-87
2023/04/19 09:15:04;;;;;;;3.45;2.00;;;12.70;96.40;;;;;;5073303;28;20476;-85
2023/04/19 09:17:30;;;;;;;7.63;2.22;;;12.60;95.90;;;;;;5074432;28;20443;-84
2023/04/19 09:19:57;;;;;;;3.80;2.23;;;12.60;95.70;;;;;;5077622;28;20048;-85
2023/04/19 09:22:23;;;;;;;;;;;12.90;96.00;;;;;;5060679;28;20369;-84
2023/04/19 09:24:50;;;;;;;4.63;2.30;;;12.70;94.50;;;;;;5078544;28;19959;-84
2023/04/19 09:27:30;;;;;;;4.85;2.10;;;12.60;94.20;;;;;;5060839;28;20044;-86
2023/04/19 09:29:57;;;;;;;6.22;2.00;;;12.60;95.00;;;;;;5077543;28;20048;-85
2023/04/19 09:32:23;;;;;;;7.30;2.40;;;13.40;94.50;;;;;;5057989;28;20154;-86
2023/04/19 09:34:59;;;;;;;3.33;2.30;;;13.10;94.50;;;;;;5057064;28;20076;-84
2023/04/19 09:37:25;;;;;;;7.22;2.28;;;12.80;94.10;;;;;;5073657;28;20053;-86
2023/04/19 09:39:52;;;;;;;11.63;3.30;;;12.90;93.60;;;;;;5073886;28;20086;-85
2023/04/19 09:42:19;;;;;;;4.93;2.42;;;12.80;93.80;;;;;;5074573;28;20044;-85
2023/04/19 09:44:54;;;;;;;;;;;13.30;94.70;;;;;;5073954;28;20125;-85
2023/04/19 09:47:24;;;;;;;6.15;1.98;;;13.20;93.10;;;;;;5074632;28;19927;-86
2023/04/19 09:50:08;;;;;;;2.63;1.70;;;13.10;94.00;;;;;;5072983;28;20049;-85
2023/04/19 09:52:34;;;;;;;4.05;2.35;;;13.30;95.60;;;;;;5073236;28;20090;-86
2023/04/19 09:55:02;;;;;;;4.07;1.70;;;13.50;96.50;;;;;;5073506;28;20460;-84
2023/04/19 09:57:29;;;;;;;4.78;2.35;;;13.60;94.60;;;;;;5074215;28;20048;-85
2023/04/19 09:59:54;;;;;;;2.92;1.83;;;13.60;93.50;;;;;;5056634;28;20040;-85
2023/04/19 10:02:21;;;;;;;6.30;2.20;;;14.00;94.30;;;;;;5074311;28;20392;-86
2023/04/19 10:04:47;;;;;;;2.78;1.65;;;13.80;93.10;;;;;;5071386;28;20048;-85
2023/04/19 10:07:19;;;;;;;3.03;1.80;;;13.80;91.30;;;;;;5073287;28;20076;-89
2023/04/19 10:09:48;;;;;;;3.20;2.25;;;13.80;92.10;;;;;;5076217;28;20127;-87
2023/04/19 10:12:27;;;;;;;2.72;1.73;;;14.00;91.50;;;;;;5074734;28;20075;-86
2023/04/19 10:14:58;;;;;;;9.00;1.92;;;14.10;91.70;;;;;;5075111;28;20040;-85
2023/04/19 10:17:25;;;;;;;3.35;1.63;;;14.80;91.50;;;;;;5072793;28;20090;-84
2023/04/19 10:20:05;;;;;;;2.63;1.70;;;14.00;91.00;;;;;;5056359;28;20048;-86
2023/04/19 10:22:32;;;;;;;8.23;2.00;;;14.30;89.10;;;;;;5073278;28;20048;-86
2023/04/19 10:25:10;;;;;;;5.97;2.10;;;14.20;90.50;;;;;;5056381;28;20048;-87
2023/04/19 10:27:35;;;;;;;3.85;1.88;;;14.30;90.00;;;;;;5073049;28;20106;-89
2023/04/19 10:30:04;;;;;;;4.22;1.85;;;14.50;88.30;;;;;;5073097;28;20431;-88
2023/04/19 10:32:41;;;;;;;3.28;1.95;;;14.40;89.30;;;;;;5055456;28;20087;-87
2023/04/19 10:35:09;;;;;;;2.75;1.90;;;14.40;88.00;;;;;;5056450;28;20397;-87
2023/04/19 10:37:39;;;;;;;3.25;1.80;;;14.20;86.40;;;;;;5072761;28;20052;-87
2023/04/19 10:40:07;;;;;;;9.15;1.95;;;14.60;87.80;;;;;;5072204;28;20365;-84
2023/04/19 10:43:10;;;;;;;2.22;1.50;;;14.30;86.30;;;;;;5056462;28;20392;-87
2023/04/19 10:45:36;;;;;;;3.13;2.28;;;14.20;88.00;;;;;;5056808;28;20041;-86
2023/04/19 10:48:03;;;;;;;3.87;2.10;;;14.40;89.10;;;;;;5073923;28;20048;-85
2023/04/19 10:50:29;;;;;;;2.30;1.60;;;14.50;87.80;;;;;;5072384;28;20136;-85
2023/04/19 10:52:56;;;;;;;;;;;14.50;86.20;;;;;;5055972;28;20072;-87
2023/04/19 10:55:21;;;;;;;4.45;1.83;;;14.60;89.30;;;;;;5056107;28;19920;-85
2023/04/19 10:58:06;;;;;;;3.07;1.63;;;14.60;84.20;;;;;;5072531;28;20090;-85
2023/04/19 11:00:32;;;;;;;2.80;1.80;;;15.20;86.10;;;;;;5073637;28;20525;-85
2023/04/19 11:03:37;;;;;;;3.50;2.03;;;14.70;84.80;;;;;;5072816;28;20040;-85
2023/04/19 11:06:18;;;;;;;4.30;1.80;;;14.70;86.00;;;;;;5073005;28;20485;-85
2023/04/19 11:08:44;;;;;;;5.75;1.88;;;14.70;84.40;;;;;;5056041;28;20037;-85
2023/04/19 11:11:10;;;;;;;2.83;1.80;;;14.90;84.80;;;;;;5055892;28;20045;-85
2023/04/19 11:13:36;;;;;;;3.57;2.10;;;15.00;84.20;;;;;;5055902;28;20117;-87
2023/04/19 11:16:07;;;;;;;3.35;1.75;;;15.00;84.30;;;;;;5072554;28;20036;-88
2023/04/19 11:18:33;;;;;;;3.17;2.13;;;15.00;85.80;;;;;;5056779;28;20044;-83
2023/04/19 11:21:00;;;;;;;2.40;1.70;;;15.10;83.00;;;;;;5074860;28;20056;-86
2023/04/19 11:23:25;;;;;;;;;;;15.00;83.00;;;;;;5056660;28;20067;-84
2023/04/19 11:25:52;;;;;;;4.22;1.90;;;15.20;85.00;;;;;;5074399;28;20451;-87
2023/04/19 11:28:17;;;;;;;3.13;2.00;;;15.10;85.80;;;;;;5073550;28;20106;-85
2023/04/19 11:30:44;;;;;;;4.50;1.98;;;15.10;84.10;;;;;;5073016;28;20476;-85
2023/04/19 11:33:11;;;;;;;4.00;1.77;;;15.30;84.30;;;;;;5074174;28;20037;-84
2023/04/19 11:35:37;;;;;;;2.92;1.70;;;15.20;83.60;;;;;;5072459;28;20044;-84
2023/04/19 11:38:04;;;;;;;4.47;1.80;;;15.20;83.10;;;;;;5072218;28;20041;-85
2023/04/19 11:40:30;;;;;;;;;;;15.50;84.00;;;;;;5075307;28;20503;-85
2023/04/19 11:43:02;;;;;;;4.28;1.90;;;15.20;84.30;;;;;;5073133;28;19927;-84
2023/04/19 11:45:36;;;;;;;4.10;1.85;;;15.30;85.20;;;;;;5076099;28;20047;-85
2023/04/19 11:48:03;;;;;;;6.18;2.38;;;15.20;84.00;;;;;;5077946;28;20181;-85
2023/04/19 11:50:31;;;;;;;4.00;2.00;;;15.20;85.60;;;;;;5077912;28;20140;-86
2023/04/19 11:52:57;;;;;;;8.10;1.83;;;15.30;85.50;;;;;;5059386;28;20049;-86
2023/04/19 11:55:23;;;;;;;4.63;2.03;;;15.20;84.10;;;;;;5077265;28;20044;-85
2023/04/19 11:57:48;;;;;;;5.47;2.00;;;15.30;85.20;;;;;;5076001;28;20056;-86
2023/04/19 12:00:15;;;;;;;3.00;1.77;;;15.30;84.80;;;;;;5059554;28;20044;-84
2023/04/19 12:02:42;;;;;;;;;;;15.30;82.50;;;;;;5076230;28;20147;-86
2023/04/19 12:05:09;;;;;;;4.55;2.00;;;15.40;85.10;;;;;;5076230;28;19963;-85
2023/04/19 12:07:35;;;;;;;3.10;2.08;;;15.60;85.60;;;;;;5058837;28;20049;-87
2023/04/19 12:10:09;;;;;;;2.67;1.97;;;15.60;84.60;;;;;;5058805;28;20135;-85
2023/04/19 12:12:36;;;;;;;6.28;2.22;;;15.70;84.00;;;;;;5058384;28;20044;-87
2023/04/19 12:15:01;;;;;;;2.70;1.98;;;15.80;83.50;;;;;;5075927;28;20044;-86
2023/04/19 12:17:27;;;;;;;3.75;2.22;;;15.70;83.20;;;;;;5075599;28;20121;-87
2023/04/19 12:19:53;;;;;;;4.55;2.20;;;15.60;82.80;;;;;;5058723;28;20075;-86
2023/04/19 12:22:19;;;;;;;4.72;2.25;;;15.40;84.30;;;;;;5076190;28;20051;-86
2023/04/19 12:24:45;;;;;;;3.20;2.10;;;15.40;84.10;;;;;;5075285;28;20048;-86
2023/04/19 12:27:11;;;;;;;3.78;2.25;;;16.00;85.40;;;;;;5075406;28;20496;-86
2023/04/19 12:29:37;;;;;;;5.73;2.17;;;16.20;85.60;;;;;;5074803;28;20098;-85
2023/04/19 12:32:04;;;;;;;6.40;2.58;;;15.90;86.20;;;;;;5058318;28;20385;-86
2023/04/19 12:34:30;;;;;;;3.42;2.25;;;15.70;86.30;;;;;;5074543;28;20056;-85
2023/04/19 12:36:56;;;;;;;5.40;2.70;;;15.70;86.90;;;;;;5074964;28;20040;-87
2023/04/19 12:39:22;;;;;;;5.43;2.40;;;15.60;86.60;;;;;;5057985;28;20063;-85
2023/04/19 12:41:48;;;;;;;3.17;2.30;;;15.70;87.50;;;;;;5058471;28;20036;-85
2023/04/19 12:44:15;;;;;;;3.67;2.53;;;15.70;87.90;;;;;;5074862;28;20048;-85
2023/04/19 12:46:40;;;;;;;12.50;4.50;;;15.80;88.30;;;;;;5058172;28;20133;-87
2023/04/19 12:49:06;;;;;;;5.67;2.70;;;15.90;89.10;;;;;;5075142;28;20098;-88
2023/04/19 12:51:32;;;;;;;3.87;2.40;;;16.20;90.00;;;;;;5080738;28;20047;-87